Time;durP1;ratioP1;P1;durP2;ratioP2;P2;SDS_P1;SDS_P2;PMS_P1;PMS_P2;Temp;Humidity;BMP_temperature;BMP_pressure;BME280_temperature;BME280_humidity;BME280_pressure;Samples;Min_cycle;Max_cycle;Signal;HPM_P1;HPM_P2
2023/12/30 00:01:47;;;;;;;;;;;;;;;10.07;100.00;100520.69;5020226;28;815;-82
2023/12/30 00:04:13;;;;;;;;;;;;;;;10.21;100.00;100516.84;5019920;28;820;-82
2023/12/30 00:06:40;;;;;;;;;;;;;;;10.30;100.00;100520.63;5019429;28;1178;-82
2023/12/30 00:09:06;;;;;;;;;;;;;;;10.32;100.00;100519.53;5019963;28;812;-82
2023/12/30 00:11:32;;;;;;;;;;;;;;;10.20;100.00;100525.88;5020116;28;891;-82
2023/12/30 00:13:58;;;;;;;;;;;;;;;10.25;100.00;100533.56;5019884;28;820;-82
2023/12/30 00:16:27;;;;;;;;;;;;;;;10.22;100.00;100531.13;5019105;28;1199;-82
2023/12/30 00:18:53;;;;;;;;;;;;;;;10.25;100.00;100521.03;5019285;28;816;-82
2023/12/30 00:21:20;;;;;;;;;;;;;;;10.21;100.00;100526.72;5019666;28;840;-82
2023/12/30 00:23:47;;;;;;;;;;;;;;;10.34;100.00;100535.47;5019651;28;824;-82
2023/12/30 00:26:24;;;;;;;;;;;;;;;10.22;100.00;100541.84;5018466;28;1890;-83
2023/12/30 00:28:50;;;;;;;;;;;;;;;10.22;100.00;100548.06;5019261;28;815;-82
2023/12/30 00:31:24;;;;;;;;;;;;;;;10.22;100.00;100552.56;5018314;28;875;-82
2023/12/30 00:33:55;;;;;;;;;;;;;;;10.26;100.00;100551.34;5018303;28;932;-82
2023/12/30 00:36:21;;;;;;;;;;;;;;;10.21;100.00;100564.25;5018492;28;1277;-82
2023/12/30 00:38:47;;;;;;;;;;;;;;;10.25;100.00;100566.59;5020189;28;915;-82
2023/12/30 00:41:13;;;;;;;;;;;;;;;10.29;100.00;100569.84;5020062;28;910;-83
2023/12/30 00:43:43;;;;;;;;;;;;;;;10.19;100.00;100561.69;5020158;28;832;-82
2023/12/30 00:46:09;;;;;;;;;;;;;;;10.30;100.00;100561.69;5019683;28;1894;-83
2023/12/30 00:48:35;;;;;;;;;;;;;;;10.25;100.00;100573.78;5021004;28;745;-82
2023/12/30 00:51:01;;;;;;;;;;;;;;;10.18;100.00;100577.91;5020681;28;777;-82
2023/12/30 00:53:28;;;;;;;;;;;;;;;10.27;100.00;100575.34;5019571;28;852;-82
2023/12/30 00:55:54;;;;;;;;;;;;;;;10.30;100.00;100574.22;5019574;28;1189;-83
2023/12/30 00:58:21;;;;;;;;;;;;;;;10.34;100.00;100564.97;5020006;28;843;-82
2023/12/30 01:00:47;;;;;;;;;;;;;;;10.33;100.00;100566.81;5020403;28;812;-82
2023/12/30 01:03:13;;;;;;;;;;;;;;;10.28;100.00;100562.78;5019892;28;895;-82
2023/12/30 01:05:39;;;;;;;;;;;;;;;10.30;100.00;100563.50;5019548;28;1953;-82
2023/12/30 01:08:05;;;;;;;;;;;;;;;10.43;100.00;100576.75;5020774;28;915;-83
2023/12/30 01:10:31;;;;;;;;;;;;;;;10.36;100.00;100587.13;5021295;28;839;-82
2023/12/30 01:12:57;;;;;;;;;;;;;;;10.30;100.00;100596.53;5020418;28;732;-83
2023/12/30 01:15:23;;;;;;;;;;;;;;;10.23;100.00;100598.03;5018777;28;1302;-83
2023/12/30 01:17:49;;;;;;;;;;;;;;;10.32;100.00;100599.06;5019158;28;881;-82
2023/12/30 01:20:16;;;;;;;;;;;;;;;10.32;100.00;100608.00;5020834;28;805;-83
2023/12/30 01:22:41;;;;;;;;;;;;;;;10.25;100.00;100609.47;5020459;28;741;-83
2023/12/30 01:25:08;;;;;;;;;;;;;;;10.21;100.00;100607.97;5019433;28;1894;-83
2023/12/30 01:27:34;;;;;;;;;;;;;;;10.26;100.00;100611.19;5021316;28;817;-83
2023/12/30 01:30:00;;;;;;;;;;;;;;;10.16;100.00;100610.22;5020882;28;816;-82
2023/12/30 01:32:26;;;;;;;;;;;;;;;10.12;100.00;100608.75;5021203;28;792;-82
2023/12/30 01:34:52;;;;;;;;;;;;;;;10.22;100.00;100611.53;5021352;28;808;-83
2023/12/30 01:37:18;;;;;;;;;;;;;;;10.24;100.00;100610.47;5026621;28;1186;-83
2023/12/30 01:39:44;;;;;;;;;;;;;;;10.24;100.00;100613.16;5033488;28;850;-82
2023/12/30 01:42:11;;;;;;;;;;;;;;;10.21;100.00;100613.34;5018189;28;904;-82
2023/12/30 01:44:37;;;;;;;;;;;;;;;10.28;100.00;100608.38;5018444;28;893;-82
2023/12/30 01:47:04;;;;;;;;;;;;;;;10.33;100.00;100608.84;5020101;28;1949;-83
2023/12/30 01:49:30;;;;;;;;;;;;;;;10.21;100.00;100607.13;5021520;28;873;-83
2023/12/30 01:51:57;;;;;;;;;;;;;;;10.28;100.00;100608.38;5020066;28;823;-82
2023/12/30 01:54:25;;;;;;;;;;;;;;;10.30;100.00;100612.63;5019523;28;797;-83
2023/12/30 01:56:51;;;;;;;;;;;;;;;10.22;100.00;100614.22;5021281;28;1193;-83
2023/12/30 01:59:19;;;;;;;;;;;;;;;10.22;100.00;100614.22;5021475;28;820;-83
2023/12/30 02:01:45;;;;;;;;;;;;;;;10.13;100.00;100620.31;5021362;28;820;-82
2023/12/30 02:04:11;;;;;;;;;;;;;;;10.14;100.00;100622.03;5019910;28;817;-83
2023/12/30 02:06:39;;;;;;;;;;;;;;;10.11;100.00;100627.63;5015838;28;1989;-82
2023/12/30 02:09:08;;;;;;;;;;;;;;;10.12;100.00;100626.66;5017762;28;832;-82
2023/12/30 02:11:34;;;;;;;;;;;;;;;10.07;100.00;100627.03;5017713;28;899;-82
2023/12/30 02:14:00;;;;;;;;;;;;;;;9.93;100.00;100612.09;5016831;28;897;-82
2023/12/30 02:16:26;;;;;;;;;;;;;;;10.13;100.00;100617.63;5015856;28;1209;-82
2023/12/30 02:18:52;;;;;;;;;;;;;;;10.06;100.00;100618.16;5017955;28;827;-82
2023/12/30 02:21:19;;;;;;;;;;;;;;;10.17;100.00;100619.09;5019673;28;783;-83
2023/12/30 02:23:51;;;;;;;;;;;;;;;10.05;100.00;100626.31;5019392;28;839;-82
2023/12/30 02:26:17;;;;;;;;;;;;;;;10.20;100.00;100618.84;5017348;28;1957;-82
2023/12/30 02:28:43;;;;;;;;;;;;;;;10.07;100.00;100617.16;5015864;28;801;-82
2023/12/30 02:31:09;;;;;;;;;;;;;;;10.07;100.00;100621.69;5017677;28;804;-82
2023/12/30 02:33:35;;;;;;;;;;;;;;;10.09;100.00;100622.41;5017571;28;827;-82
2023/12/30 02:36:01;;;;;;;;;;;;;;;9.97;100.00;100629.63;5017586;28;1221;-82
2023/12/30 02:38:27;;;;;;;;;;;;;;;9.93;100.00;100621.94;5017919;28;907;-82
2023/12/30 02:40:53;;;;;;;;;;;;;;;9.89;100.00;100633.91;5021036;28;901;-82
2023/12/30 02:43:19;;;;;;;;;;;;;;;9.99;100.00;100622.31;5017043;28;777;-83
2023/12/30 02:45:45;;;;;;;;;;;;;;;10.10;100.00;100625.94;5017684;28;1937;-83
2023/12/30 02:48:11;;;;;;;;;;;;;;;9.86;100.00;100643.03;5018512;28;926;-82
2023/12/30 02:50:37;;;;;;;;;;;;;;;9.87;100.00;100641.22;5017869;28;902;-82
2023/12/30 02:53:03;;;;;;;;;;;;;;;9.98;100.00;100644.72;5021353;28;836;-83
2023/12/30 02:55:29;;;;;;;;;;;;;;;9.95;100.00;100653.00;5019691;28;1276;-83
2023/12/30 02:57:55;;;;;;;;;;;;;;;9.93;100.00;100663.00;5028618;28;895;-83
2023/12/30 03:00:21;;;;;;;;;;;;;;;9.93;100.00;100664.81;5021492;28;743;-82
2023/12/30 03:02:47;;;;;;;;;;;;;;;9.81;100.00;100665.81;5021791;28;879;-82
2023/12/30 03:05:13;;;;;;;;;;;;;;;9.73;100.00;100661.94;5020439;28;1871;-83
2023/12/30 03:07:39;;;;;;;;;;;;;;;9.77;100.00;100671.41;5021469;28;835;-82
2023/12/30 03:10:05;;;;;;;;;;;;;;;9.81;100.00;100685.41;5022379;28;915;-83
2023/12/30 03:12:31;;;;;;;;;;;;;;;9.87;100.00;100665.31;5019368;28;844;-82
2023/12/30 03:14:57;;;;;;;;;;;;;;;9.82;100.00;100654.97;5021413;28;816;-83
2023/12/30 03:17:23;;;;;;;;;;;;;;;9.84;100.00;100666.44;5027018;28;1311;-83
2023/12/30 03:19:49;;;;;;;;;;;;;;;9.93;100.00;100663.00;5020109;28;878;-83
2023/12/30 03:22:15;;;;;;;;;;;;;;;9.83;100.00;100659.34;5020511;28;958;-82
2023/12/30 03:24:41;;;;;;;;;;;;;;;9.74;100.00;100674.34;5019273;28;859;-82
2023/12/30 03:27:08;;;;;;;;;;;;;;;9.91;100.00;100656.03;5022191;28;1894;-82
2023/12/30 03:29:34;;;;;;;;;;;;;;;9.97;100.00;100658.25;5021864;28;804;-83
2023/12/30 03:31:59;;;;;;;;;;;;;;;9.98;100.00;100660.78;5021522;28;889;-83
2023/12/30 03:34:25;;;;;;;;;;;;;;;9.89;100.00;100661.53;5022356;28;838;-83
2023/12/30 03:36:51;;;;;;;;;;;;;;;9.94;100.00;100663.88;5022230;28;1190;-83
2023/12/30 03:39:17;;;;;;;;;;;;;;;9.98;100.00;100671.50;5022530;28;840;-83
2023/12/30 03:41:43;;;;;;;;;;;;;;;9.89;100.00;100676.75;5022615;28;839;-83
2023/12/30 03:44:09;;;;;;;;;;;;;;;9.95;100.00;100678.97;5022577;28;752;-82
2023/12/30 03:46:35;;;;;;;;;;;;;;;10.03;100.00;100688.09;5021855;28;1906;-83
2023/12/30 03:49:01;;;;;;;;;;;;;;;9.88;100.00;100691.97;5022946;28;887;-83
2023/12/30 03:51:27;;;;;;;;;;;;;;;9.82;100.00;100703.19;5022265;28;891;-82
2023/12/30 03:53:53;;;;;;;;;;;;;;;9.82;100.00;100686.25;5022896;28;910;-83
2023/12/30 03:56:19;;;;;;;;;;;;;;;9.93;100.00;100694.28;5023030;28;1264;-83
2023/12/30 03:58:45;;;;;;;;;;;;;;;10.04;100.00;100694.31;5022147;28;887;-82
2023/12/30 04:01:11;;;;;;;;;;;;;;;9.94;100.00;100686.16;5022955;28;878;-83
2023/12/30 04:03:38;;;;;;;;;;;;;;;10.02;100.00;100686.34;5021413;28;906;-83
2023/12/30 04:06:04;;;;;;;;;;;;;;;9.99;100.00;100686.63;5022535;28;1898;-83
2023/12/30 04:08:30;;;;;;;;;;;;;;;9.90;100.00;100686.50;5023349;28;921;-83
2023/12/30 04:10:56;;;;;;;;;;;;;;;10.01;100.00;100689.16;5022959;28;894;-83
2023/12/30 04:13:22;;;;;;;;;;;;;;;9.98;100.00;100692.09;5023176;28;835;-83
2023/12/30 04:15:48;;;;;;;;;;;;;;;10.04;100.00;100687.09;5022762;28;1267;-83
2023/12/30 04:18:14;;;;;;;;;;;;;;;10.14;100.00;100697.09;5025733;28;745;-84
2023/12/30 04:20:40;;;;;;;;;;;;;;;10.12;100.00;100691.81;5033082;28;1138;-83
2023/12/30 04:23:06;;;;;;;;;;;;;;;10.06;100.00;100706.59;5023891;28;934;-82
2023/12/30 04:25:32;;;;;;;;;;;;;;;9.90;100.00;100690.03;5019171;28;1898;-82
2023/12/30 04:27:58;;;;;;;;;;;;;;;9.86;100.00;100688.59;5018999;28;911;-83
2023/12/30 04:30:24;;;;;;;;;;;;;;;9.85;100.00;100708.31;5019013;28;753;-82
2023/12/30 04:32:50;;;;;;;;;;;;;;;9.83;100.00;100698.66;5018819;28;887;-82
2023/12/30 04:35:16;;;;;;;;;;;;;;;9.83;100.00;100702.19;5018230;28;1194;-83
2023/12/30 04:37:42;;;;;;;;;;;;;;;9.87;100.00;100706.34;5019628;28;867;-83
2023/12/30 04:40:09;;;;;;;;;;;;;;;9.91;100.00;100709.63;5018813;28;914;-82
2023/12/30 04:42:35;;;;;;;;;;;;;;;9.81;100.00;100708.66;5017858;28;846;-82
2023/12/30 04:45:01;;;;;;;;;;;;;;;9.87;100.00;100703.69;5018021;28;835;-82
2023/12/30 04:47:27;;;;;;;;;;;;;;;9.90;100.00;100714.16;5018439;28;1902;-82
2023/12/30 04:49:53;;;;;;;;;;;;;;;9.90;100.00;100711.47;5016900;28;777;-83
2023/12/30 04:52:18;;;;;;;;;;;;;;;9.77;100.00;100708.06;5018453;28;879;-82
2023/12/30 04:54:45;;;;;;;;;;;;;;;9.74;100.00;100716.34;5018565;28;851;-82
2023/12/30 04:57:11;;;;;;;;;;;;;;;9.78;100.00;100725.84;5018991;28;1189;-82
2023/12/30 04:59:37;;;;;;;;;;;;;;;9.83;100.00;100710.22;5018216;28;849;-82
2023/12/30 05:02:03;;;;;;;;;;;;;;;9.89;100.00;100711.59;5019290;28;886;-82
2023/12/30 05:04:29;;;;;;;;;;;;;;;9.91;100.00;100721.19;5017731;28;910;-83
2023/12/30 05:06:55;;;;;;;;;;;;;;;9.63;100.00;100735.91;5018615;28;1878;-82
2023/12/30 05:09:21;;;;;;;;;;;;;;;9.62;100.00;100734.22;5017837;28;800;-82
2023/12/30 05:11:48;;;;;;;;;;;;;;;9.74;100.00;100727.06;5018233;28;791;-82
2023/12/30 05:14:15;;;;;;;;;;;;;;;9.68;100.00;100743.59;5018345;28;761;-82
2023/12/30 05:16:45;;;;;;;;;;;;;;;9.65;100.00;100747.38;5018920;28;1182;-82
2023/12/30 05:19:11;;;;;;;;;;;;;;;9.64;100.00;100743.00;5019555;28;820;-82
2023/12/30 05:21:38;;;;;;;;;;;;;;;9.71;100.00;100736.19;5019501;28;800;-82
2023/12/30 05:24:05;;;;;;;;;;;;;;;9.61;100.00;100753.94;5016788;28;829;-82
2023/12/30 05:26:31;;;;;;;;;;;;;;;9.66;100.00;100756.28;5015955;28;1883;-83
2023/12/30 05:28:57;;;;;;;;;;;;;;;9.74;100.00;100775.28;5018948;28;816;-83
2023/12/30 05:31:24;;;;;;;;;;;;;;;9.57;100.00;100773.91;5018639;28;808;-82
2023/12/30 05:33:50;;;;;;;;;;;;;;;9.47;100.00;100778.25;5020203;28;812;-83
2023/12/30 05:36:16;;;;;;;;;;;;;;;9.39;100.00;100770.81;5017362;28;1289;-83
2023/12/30 05:38:42;;;;;;;;;;;;;;;9.56;100.00;100782.91;5019190;28;826;-82
2023/12/30 05:41:08;;;;;;;;;;;;;;;9.46;100.00;100796.16;5019013;28;765;-83
2023/12/30 05:43:34;;;;;;;;;;;;;;;9.57;100.00;100794.47;5018841;28;899;-82
2023/12/30 05:46:00;;;;;;;;;;;;;;;9.53;100.00;100787.63;5019234;28;1863;-82
2023/12/30 05:48:26;;;;;;;;;;;;;;;9.41;100.00;100779.56;5020214;28;899;-83
2023/12/30 05:50:52;;;;;;;;;;;;;;;9.51;100.00;100784.22;5019556;28;828;-82
2023/12/30 05:53:18;;;;;;;;;;;;;;;9.51;100.00;100803.81;5019123;28;915;-82
2023/12/30 05:55:44;;;;;;;;;;;;;;;9.62;100.00;100795.81;5017174;28;1268;-82
2023/12/30 05:58:10;;;;;;;;;;;;;;;9.44;100.00;100802.59;5019232;28;891;-82
2023/12/30 06:00:36;;;;;;;;;;;;;;;9.56;100.00;100809.69;5018713;28;926;-83
2023/12/30 06:03:02;;;;;;;;;;;;;;;9.56;100.00;100804.34;5019992;28;756;-83
2023/12/30 06:05:28;;;;;;;;;;;;;;;9.56;100.00;100798.13;5019409;28;1309;-82
2023/12/30 06:07:54;;;;;;;;;;;;;;;9.51;100.00;100813.69;5019217;28;1928;-82
2023/12/30 06:10:20;;;;;;;;;;;;;;;9.45;100.00;100799.81;5019658;28;811;-83
2023/12/30 06:12:46;;;;;;;;;;;;;;;9.43;100.00;100801.72;5020465;28;939;-82
2023/12/30 06:15:12;;;;;;;;;;;;;;;9.49;100.00;100803.94;5019073;28;1296;-82
2023/12/30 06:17:38;;;;;;;;;;;;;;;9.42;100.00;100818.75;5020207;28;843;-83
2023/12/30 06:20:04;;;;;;;;;;;;;;;9.40;100.00;100815.34;5021445;28;918;-83
2023/12/30 06:22:31;;;;;;;;;;;;;;;9.46;100.00;100819.41;5021091;28;859;-82
2023/12/30 06:24:57;;;;;;;;;;;;;;;9.41;100.00;100825.09;5020034;28;809;-82
2023/12/30 06:27:23;;;;;;;;;;;;;;;9.51;100.00;100825.25;5023133;28;1958;-82
2023/12/30 06:29:49;;;;;;;;;;;;;;;9.37;100.00;100838.84;5022970;28;834;-82
2023/12/30 06:32:15;;;;;;;;;;;;;;;9.44;100.00;100829.38;5025815;28;833;-83
2023/12/30 06:34:41;;;;;;;;;;;;;;;9.22;100.00;100822.09;5023477;28;840;-83
2023/12/30 06:37:07;;;;;;;;;;;;;;;9.31;100.00;100824.06;5024884;28;1213;-82
2023/12/30 06:39:33;;;;;;;;;;;;;;;9.34;100.00;100833.69;5022935;28;838;-83
2023/12/30 06:41:59;;;;;;;;;;;;;;;9.30;100.00;100848.28;5024560;28;887;-82
2023/12/30 06:44:25;;;;;;;;;;;;;;;9.17;100.00;100837.66;5024187;28;913;-84
2023/12/30 06:46:52;;;;;;;;;;;;;;;9.24;100.00;100846.91;5024344;28;1949;-83
2023/12/30 06:49:18;;;;;;;;;;;;;;;9.23;100.00;100847.88;5023670;28;886;-83
2023/12/30 06:51:45;;;;;;;;;;;;;;;9.40;100.00;100854.66;5022575;28;914;-82
2023/12/30 06:54:11;;;;;;;;;;;;;;;9.41;100.00;100846.50;5023067;28;802;-82
2023/12/30 06:56:37;;;;;;;;;;;;;;;9.38;100.00;100856.59;5022944;28;1193;-83
2023/12/30 06:59:03;;;;;;;;;;;;;;;9.26;100.00;100853.03;5025778;28;911;-83
2023/12/30 07:01:29;;;;;;;;;;;;;;;9.25;100.00;100851.31;5031179;28;824;-83
2023/12/30 07:03:55;;;;;;;;;;;;;;;9.16;100.00;100860.03;5036333;28;946;-83
2023/12/30 07:06:21;;;;;;;;;;;;;;;9.19;100.00;100857.13;5020167;28;1895;-82
2023/12/30 07:08:47;;;;;;;;;;;;;;;9.19;100.00;100847.28;5020673;28;807;-82
2023/12/30 07:11:13;;;;;;;;;;;;;;;9.07;100.00;100860.72;5020270;28;816;-82
2023/12/30 07:13:39;;;;;;;;;;;;;;;9.22;100.00;100858.72;5019967;28;829;-82
2023/12/30 07:16:06;;;;;;;;;;;;;;;9.23;100.00;100890.72;5021458;28;1312;-82
2023/12/30 07:18:32;;;;;;;;;;;;;;;9.18;100.00;100887.53;5021632;28;768;-82
2023/12/30 07:20:58;;;;;;;;;;;;;;;9.23;100.00;100892.53;5022062;28;816;-82
2023/12/30 07:23:24;;;;;;;;;;;;;;;9.35;100.00;100881.78;5021443;28;721;-83
2023/12/30 07:25:51;;;;;;;;;;;;;;;9.26;100.00;100890.50;5020538;28;1249;-82
2023/12/30 07:28:17;;;;;;;;;;;;;;;9.37;100.00;100887.88;5021800;28;1950;-82
2023/12/30 07:30:43;;;;;;;;;;;;;;;9.23;100.00;100887.19;5021111;28;812;-82
2023/12/30 07:33:09;;;;;;;;;;;;;;;9.23;100.00;100919.28;5020776;28;909;-82
2023/12/30 07:35:35;;;;;;;;;;;;;;;9.27;100.00;100902.06;5020464;28;1273;-82
2023/12/30 07:38:01;;;;;;;;;;;;;;;9.28;100.00;100906.44;5021350;28;721;-82
2023/12/30 07:40:27;;;;;;;;;;;;;;;9.36;100.00;100912.94;5021724;28;950;-82
2023/12/30 07:42:54;;;;;;;;;;;;;;;9.26;100.00;100909.25;5021037;28;942;-82
2023/12/30 07:45:20;;;;;;;;;;;;;;;9.44;100.00;100905.19;5021000;28;1281;-82
2023/12/30 07:47:46;;;;;;;;;;;;;;;9.41;100.00;100918.78;5021212;28;1954;-82
2023/12/30 07:50:12;;;;;;;;;;;;;;;9.52;100.00;100909.09;5021496;28;796;-82
2023/12/30 07:52:38;;;;;;;;;;;;;;;9.48;100.00;100920.06;5021753;28;804;-82
2023/12/30 07:55:04;;;;;;;;;;;;;;;9.61;100.00;100935.19;5020801;28;1268;-82
2023/12/30 07:57:30;;;;;;;;;;;;;;;9.58;100.00;100940.78;5021716;28;801;-82
2023/12/30 07:59:56;;;;;;;;;;;;;;;9.68;100.00;100942.66;5021777;28;1218;-82
2023/12/30 08:02:22;;;;;;;;;;;;;;;9.54;100.00;100944.66;5021288;28;805;-82
2023/12/30 08:04:48;;;;;;;;;;;;;;;9.48;100.00;100946.84;5020707;28;847;-82
2023/12/30 08:07:14;;;;;;;;;;;;;;;9.65;100.00;100944.72;5020986;28;1886;-82
2023/12/30 08:09:40;;;;;;;;;;;;;;;9.52;100.00;100950.13;5021052;28;816;-82
2023/12/30 08:12:07;;;;;;;;;;;;;;;9.59;100.00;100937.13;5020201;28;751;-82
2023/12/30 08:14:34;;;;;;;;;;;;;;;9.57;100.00;100945.28;5019408;28;834;-82
2023/12/30 08:17:00;;;;;;;;;;;;;;;9.54;100.00;100953.56;5020348;28;1248;-82
2023/12/30 08:19:26;;;;;;;;;;;;;;;9.65;100.00;100963.47;5020087;28;916;-82
2023/12/30 08:21:52;;;;;;;;;;;;;;;9.78;100.00;100964.25;5021448;28;765;-82
2023/12/30 08:24:19;;;;;;;;;;;;;;;9.83;100.00;100971.94;5021277;28;804;-82
2023/12/30 08:26:45;;;;;;;;;;;;;;;9.71;100.00;100971.03;5021268;28;1953;-82
2023/12/30 08:29:11;;;;;;;;;;;;;;;9.72;100.00;100973.59;5020629;28;836;-82
2023/12/30 08:31:37;;;;;;;;;;;;;;;9.64;100.00;100970.66;5021880;28;887;-82
2023/12/30 08:34:03;;;;;;;;;;;;;;;9.69;100.00;100984.53;5020717;28;812;-83
2023/12/30 08:36:29;;;;;;;;;;;;;;;9.69;100.00;100978.34;5020674;28;1178;-82
2023/12/30 08:38:55;;;;;;;;;;;;;;;9.87;100.00;100985.00;5019902;28;826;-83
2023/12/30 08:41:24;;;;;;;;;;;;;;;9.89;100.00;100988.41;5021488;28;827;-82
2023/12/30 08:43:55;;;;;;;;;;;;;;;9.85;100.00;101008.38;5021789;28;832;-82
2023/12/30 08:46:21;;;;;;;;;;;;;;;9.78;100.00;100999.06;5021003;28;1229;-83
2023/12/30 08:48:47;;;;;;;;;;;;;;;9.88;100.00;100999.25;5021181;28;1924;-82
2023/12/30 08:51:15;;;;;;;;;;;;;;;9.73;100.00;101001.22;5020866;28;843;-82
2023/12/30 08:53:41;;;;;;;;;;;;;;;9.86;100.00;101018.13;5021506;28;808;-83
2023/12/30 08:56:07;;;;;;;;;;;;;;;9.93;100.00;101016.69;5020824;28;1256;-82
2023/12/30 08:58:33;;;;;;;;;;;;;;;9.87;100.00;101027.88;5021184;28;815;-82
2023/12/30 09:00:59;;;;;;;;;;;;;;;9.75;100.00;101016.25;5020912;28;887;-82
2023/12/30 09:03:25;;;;;;;;;;;;;;;9.80;100.00;101042.69;5020924;28;979;-83
2023/12/30 09:05:51;;;;;;;;;;;;;;;9.80;100.00;101045.34;5021112;28;1185;-82
2023/12/30 09:08:18;;;;;;;;;;;;;;;9.80;100.00;101037.31;5022326;28;1949;-83
2023/12/30 09:10:44;;;;;;;;;;;;;;;9.89;100.00;101035.78;5021836;28;737;-83
2023/12/30 09:13:11;;;;;;;;;;;;;;;9.86;100.00;101047.59;5021729;28;812;-82
2023/12/30 09:15:37;;;;;;;;;;;;;;;9.90;100.00;101045.53;5020891;28;1256;-82
2023/12/30 09:18:03;;;;;;;;;;;;;;;9.86;100.00;101044.06;5021141;28;880;-82
2023/12/30 09:20:29;;;;;;;;;;;;;;;10.03;100.00;101044.53;5019328;28;897;-82
2023/12/30 09:22:55;;;;;;;;;;;;;;;9.95;100.00;101052.28;5021093;28;745;-83
2023/12/30 09:25:21;;;;;;;;;;;;;;;9.93;100.00;101050.66;5021035;28;1198;-83
2023/12/30 09:27:47;;;;;;;;;;;;;;;9.93;100.00;101062.25;5020603;28;1936;-82
2023/12/30 09:30:13;;;;;;;;;;;;;;;10.05;100.00;101063.16;5019778;28;895;-83
2023/12/30 09:32:40;;;;;;;;;;;;;;;10.13;100.00;101073.28;5021708;28;926;-83
2023/12/30 09:35:06;;;;;;;;;;;;;;;10.03;100.00;101075.81;5020699;28;1226;-83
2023/12/30 09:37:32;;;;;;;;;;;;;;;10.05;100.00;101079.25;5022076;28;812;-83
2023/12/30 09:39:59;;;;;;;;;;;;;;;9.95;100.00;101063.00;5022125;28;808;-83
2023/12/30 09:42:28;;;;;;;;;;;;;;;10.14;100.00;101064.28;5022400;28;808;-83
2023/12/30 09:44:55;;;;;;;;;;;;;;;10.12;100.00;101067.06;5028995;28;791;-83
2023/12/30 09:47:22;;;;;;;;;;;;;;;10.05;100.00;101071.19;5030132;28;1891;-82
2023/12/30 09:49:48;;;;;;;;;;;;;;;10.08;100.00;101060.25;5020569;28;800;-83
2023/12/30 09:52:15;;;;;;;;;;;;;;;10.18;100.00;101063.94;5018830;28;962;-82
2023/12/30 09:54:41;;;;;;;;;;;;;;;10.17;100.00;101066.75;5018592;28;914;-82
2023/12/30 09:57:06;;;;;;;;;;;;;;;10.18;100.00;101073.81;5020094;28;1172;-82
2023/12/30 09:59:37;;;;;;;;;;;;;;;10.23;100.00;101082.41;5020770;28;934;-82
2023/12/30 10:02:06;;;;;;;;;;;;;;;10.16;100.00;101075.75;5024385;28;597;-83
2023/12/30 10:04:33;;;;;;;;;;;;;;;10.12;100.00;101066.22;5023292;28;800;-82
2023/12/30 10:06:59;;;;;;;;;;;;;;;10.16;100.00;101078.44;5023944;28;1197;-82
2023/12/30 10:09:25;;;;;;;;;;;;;;;10.17;100.00;101088.19;5023451;28;1863;-83
2023/12/30 10:11:51;;;;;;;;;;;;;;;10.23;100.00;101085.09;5024988;28;823;-82
2023/12/30 10:14:17;;;;;;;;;;;;;;;9.98;100.00;101094.91;5022636;28;800;-83
2023/12/30 10:16:43;;;;;;;;;;;;;;;10.15;100.00;101088.31;5024135;28;1245;-82
2023/12/30 10:19:16;;;;;;;;;;;;;;;10.22;100.00;101094.94;5024954;28;832;-83
2023/12/30 10:21:42;;;;;;;;;;;;;;;10.27;100.00;101095.44;5025594;28;919;-82
2023/12/30 10:24:09;;;;;;;;;;;;;;;10.32;100.00;101090.63;5024204;28;852;-83
2023/12/30 10:26:37;;;;;;;;;;;;;;;10.45;100.00;101098.56;5023295;28;1212;-83
2023/12/30 10:29:06;;;;;;;;;;;;;;;10.40;100.00;101086.47;5023173;28;1867;-82
2023/12/30 10:31:32;;;;;;;;;;;;;;;10.44;100.00;101096.00;5024237;28;804;-82
2023/12/30 10:33:58;;;;;;;;;;;;;;;10.46;100.00;101092.22;5022966;28;795;-82
2023/12/30 10:36:27;;;;;;;;;;;;;;;10.72;100.00;101092.09;5024192;28;1190;-82
2023/12/30 10:38:59;;;;;;;;;;;;;;;10.80;100.00;101100.38;5022814;28;802;-82
2023/12/30 10:41:26;;;;;;;;;;;;;;;10.86;100.00;101100.75;5024647;28;874;-83
2023/12/30 10:43:53;;;;;;;;;;;;;;;10.90;100.00;101094.16;5025715;28;887;-83
2023/12/30 10:46:19;;;;;;;;;;;;;;;10.94;100.00;101097.47;5024069;28;1217;-83
2023/12/30 10:48:56;;;;;;;;;;;;;;;11.06;100.00;101098.34;5026167;28;1936;-83
2023/12/30 10:51:28;;;;;;;;;;;;;;;10.86;100.00;101094.53;5026100;28;922;-83
2023/12/30 10:54:05;;;;;;;;;;;;;;;10.81;100.00;101102.94;5024085;28;837;-83
2023/12/30 10:56:39;;;;;;;;;;;;;;;10.84;100.00;101109.91;5022865;28;1225;-83
2023/12/30 10:59:10;;;;;;;;;;;;;;;10.86;100.00;101098.06;5024784;28;565;-83
2023/12/30 11:01:36;;;;;;;;;;;;;;;10.81;100.00;101105.63;5022026;28;794;-82
2023/12/30 11:04:11;;;;;;;;;;;;;;;10.71;100.00;101104.63;5025088;28;879;-83
2023/12/30 11:06:45;;;;;;;;;;;;;;;10.73;100.00;101096.47;5023706;28;1233;-82
2023/12/30 11:09:13;;;;;;;;;;;;;;;10.76;100.00;101097.06;5023465;28;1866;-83
2023/12/30 11:11:52;;;;;;;;;;;;;;;10.82;100.00;101104.66;5021291;28;932;-83
2023/12/30 11:14:22;;;;;;;;;;;;;;;10.75;100.00;101106.09;5030727;28;796;-84
2023/12/30 11:16:51;;;;;;;;;;;;;;;10.80;100.00;101111.94;5028722;28;1249;-82
2023/12/30 11:19:30;;;;;;;;;;;;;;;10.81;100.00;101110.97;5023606;28;963;-82
2023/12/30 11:21:59;;;;;;;;;;;;;;;10.85;100.00;101119.66;5022156;28;808;-82
2023/12/30 11:24:26;;;;;;;;;;;;;;;10.82;100.00;101123.44;5023196;28;828;-83
2023/12/30 11:26:54;;;;;;;;;;;;;;;10.94;100.00;101124.31;5023027;28;1272;-82
2023/12/30 11:29:25;;;;;;;;;;;;;;;11.00;100.00;101144.44;5022732;28;1863;-83
2023/12/30 11:31:53;;;;;;;;;;;;;;;10.92;100.00;101120.91;5025244;28;827;-82
2023/12/30 11:34:20;;;;;;;;;;;;;;;11.08;100.00;101117.88;5023690;28;800;-83
2023/12/30 11:36:47;;;;;;;;;;;;;;;10.94;100.00;101118.09;5023765;28;1182;-83
2023/12/30 11:39:22;;;;;;;;;;;;;;;11.10;100.00;101110.53;5022955;28;863;-83
2023/12/30 11:41:48;;;;;;;;;;;;;;;11.10;100.00;101121.28;5021583;28;872;-83
2023/12/30 11:44:14;;;;;;;;;;;;;;;10.96;100.00;101127.75;5021301;28;806;-82
2023/12/30 11:46:41;;;;;;;;;;;;;;;11.02;100.00;101129.97;5021862;28;1184;-83
2023/12/30 11:49:07;;;;;;;;;;;;;;;11.18;100.00;101127.75;5022047;28;1882;-82
2023/12/30 11:51:33;;;;;;;;;;;;;;;11.11;100.00;101129.25;5022793;28;911;-82
2023/12/30 11:54:05;;;;;;;;;;;;;;;11.19;100.00;101126.78;5020329;28;869;-83
2023/12/30 11:56:32;;;;;;;;;;;;;;;11.19;100.00;101126.78;5022233;28;1268;-83
2023/12/30 11:58:58;;;;;;;;;;;;;;;11.10;100.00;101130.19;5023294;28;812;-82
2023/12/30 12:01:24;;;;;;;;;;;;;;;11.01;100.00;101116.63;5022657;28;792;-83
2023/12/30 12:03:51;;;;;;;;;;;;;;;10.96;100.00;101122.38;5021464;28;770;-82
2023/12/30 12:06:17;;;;;;;;;;;;;;;11.17;100.00;101115.31;5020313;28;1253;-82
2023/12/30 12:08:43;;;;;;;;;;;;;;;11.14;100.00;101112.88;5022322;28;1878;-82
2023/12/30 12:11:09;;;;;;;;;;;;;;;11.21;100.00;101153.53;5021612;28;906;-83
2023/12/30 12:13:35;;;;;;;;;;;;;;;11.17;100.00;101106.41;5024103;28;820;-83
2023/12/30 12:16:04;;;;;;;;;;;;;;;11.16;100.00;101118.97;5022700;28;1269;-82
2023/12/30 12:18:31;;;;;;;;;;;;;;;11.23;100.00;101113.13;5022919;28;817;-83
2023/12/30 12:20:57;;;;;;;;;;;;;;;11.37;100.00;101116.44;5023229;28;890;-83
2023/12/30 12:23:24;;;;;;;;;;;;;;;11.26;100.00;101105.69;5022156;28;820;-83
2023/12/30 12:25:50;;;;;;;;;;;;;;;11.32;100.00;101115.94;5024546;28;1202;-83
2023/12/30 12:28:20;;;;;;;;;;;;;;;11.43;100.00;101107.03;5033700;28;1875;-82
2023/12/30 12:30:46;;;;;;;;;;;;;;;11.52;100.00;101113.50;5028702;28;910;-82
2023/12/30 12:33:13;;;;;;;;;;;;;;;11.51;100.00;101111.81;5021327;28;786;-82
2023/12/30 12:35:39;;;;;;;;;;;;;;;11.79;100.00;101100.50;5019992;28;1210;-83
2023/12/30 12:38:06;;;;;;;;;;;;;;;12.04;100.00;101096.72;5021387;28;804;-83
2023/12/30 12:40:34;;;;;;;;;;;;;;;12.07;100.00;101094.59;5021562;28;749;-83
2023/12/30 12:43:00;;;;;;;;;;;;;;;12.30;100.00;101102.63;5021945;28;801;-83
2023/12/30 12:45:33;;;;;;;;;;;;;;;12.58;100.00;101110.06;5096915;27;1358;-82